Time;durP1;ratioP1;P1;durP2;ratioP2;P2;SDS_P1;SDS_P2;PMS_P1;PMS_P2;Temp;Humidity;BMP_temperature;BMP_pressure;BME280_temperature;BME280_humidity;BME280_pressure;Samples;Min_cycle;Max_cycle;Signal;HPM_P1;HPM_P2
2021/10/29 00:00:56;;;;;;;20.38;10.95;;;;;;;1.91;100.00;96583.03;4983245;28;20070;-60
2021/10/29 00:03:22;;;;;;;19.00;11.02;;;;;;;2.12;100.00;96582.44;4972784;28;20213;-59
2021/10/29 00:05:48;;;;;;;18.70;11.38;;;;;;;2.31;100.00;96582.19;4960010;28;20054;-60
2021/10/29 00:08:13;;;;;;;19.08;11.18;;;;;;;2.66;100.00;96585.69;4963677;28;20130;-57
2021/10/29 00:10:39;;;;;;;22.35;12.18;;;;;;;2.87;100.00;96577.75;4965949;28;20058;-57
2021/10/29 00:13:05;;;;;;;20.17;11.23;;;;;;;3.01;100.00;96572.97;4961895;28;20047;-61
2021/10/29 00:15:31;;;;;;;18.90;11.18;;;;;;;3.12;100.00;96570.72;4973485;28;20050;-60
2021/10/29 00:17:58;;;;;;;19.33;10.77;;;;;;;3.12;100.00;96565.31;4964569;28;20054;-59
2021/10/29 00:20:23;;;;;;;17.15;10.07;;;;;;;3.06;100.00;96570.09;4959111;28;20133;-60
2021/10/29 00:22:49;;;;;;;20.08;10.43;;;;;;;2.97;100.00;96565.78;4964177;28;20182;-59
2021/10/29 00:25:15;;;;;;;16.10;9.25;;;;;;;2.94;100.00;96564.53;4956881;28;20050;-61
2021/10/29 00:27:41;;;;;;;17.05;10.00;;;;;;;2.90;100.00;96566.28;4960531;28;20448;-59
2021/10/29 00:30:08;;;;;;;20.95;11.68;;;;;;;2.78;100.00;96569.63;4953488;28;20046;-59
2021/10/29 00:32:33;;;;;;;16.77;9.73;;;;;;;2.72;100.00;96570.91;4960792;28;20240;-59
2021/10/29 00:34:59;;;;;;;17.42;9.65;;;;;;;2.76;100.00;96569.16;4964448;28;20114;-58
2021/10/29 00:37:25;;;;;;;18.02;9.57;;;;;;;2.80;100.00;96564.69;4959102;28;20385;-59
2021/10/29 00:39:51;;;;;;;17.77;9.93;;;;;;;2.67;100.00;96554.84;4965508;28;20045;-59
2021/10/29 00:42:17;;;;;;;16.65;10.65;;;;;;;2.73;100.00;96561.66;4959141;28;20062;-59
2021/10/29 00:44:43;;;;;;;21.42;11.00;;;;;;;2.60;100.00;96563.44;4963680;28;20039;-58
2021/10/29 00:47:09;;;;;;;22.10;10.20;;;;;;;2.62;100.00;96563.91;4958244;28;20122;-59
2021/10/29 00:49:35;;;;;;;21.60;11.07;;;;;;;2.67;100.00;96561.03;4963581;28;20125;-59
2021/10/29 00:52:01;;;;;;;28.90;12.30;;;;;;;2.74;100.00;96555.16;4967368;28;20046;-59
2021/10/29 00:54:27;;;;;;;32.08;12.93;;;;;;;2.97;100.00;96550.38;4974931;28;20392;-58
2021/10/29 00:56:53;;;;;;;32.55;12.80;;;;;;;3.01;100.00;96555.94;4979951;28;20038;-57
2021/10/29 00:59:18;;;;;;;27.05;12.63;;;;;;;3.01;100.00;96556.72;4976590;28;20042;-58
2021/10/29 01:01:48;;;;;;;33.65;13.90;;;;;;;3.02;100.00;96554.81;4982500;28;20101;-61
2021/10/29 01:04:15;;;;;;;34.80;14.95;;;;;;;3.02;100.00;96549.38;4977678;28;20046;-61
2021/10/29 01:06:43;;;;;;;103.80;16.35;;;;;;;2.91;100.00;96558.97;4983126;28;20149;-60
2021/10/29 01:09:08;;;;;;;41.03;14.50;;;;;;;3.01;100.00;96564.06;4978046;28;20044;-58
2021/10/29 01:11:34;;;;;;;30.85;13.70;;;;;;;2.99;100.00;96567.06;4982265;28;20050;-59
2021/10/29 01:14:00;;;;;;;57.47;16.92;;;;;;;2.93;100.00;96564.84;4983022;28;20395;-59
2021/10/29 01:16:26;;;;;;;46.53;16.60;;;;;;;3.12;100.00;96565.31;4977643;28;20050;-59
2021/10/29 01:18:51;;;;;;;63.20;17.38;;;;;;;3.30;100.00;96562.56;4997780;28;20078;-59
2021/10/29 01:21:17;;;;;;;48.22;17.10;;;;;;;3.27;100.00;96549.66;4975734;28;20041;-61
2021/10/29 01:23:44;;;;;;;69.85;18.75;;;;;;;3.33;100.00;96546.47;4983056;28;20121;-57
2021/10/29 01:26:13;;;;;;;46.42;16.50;;;;;;;3.38;100.00;96543.56;4977909;28;20042;-58
2021/10/29 01:28:39;;;;;;;56.42;12.75;;;;;;;3.57;100.00;96540.47;4983535;28;20130;-60
2021/10/29 01:31:06;;;;;;;45.63;15.80;;;;;;;3.74;100.00;96547.72;4977096;28;20053;-58
2021/10/29 01:33:32;;;;;;;53.15;15.90;;;;;;;3.90;100.00;96531.72;4982178;28;20450;-58
2021/10/29 01:35:58;;;;;;;53.15;17.42;;;;;;;4.04;100.00;96533.41;4982865;28;20046;-59
2021/10/29 01:38:34;;;;;;;42.78;17.17;;;;;;;4.17;100.00;96533.16;4975365;28;20030;-59
2021/10/29 01:41:00;;;;;;;112.25;19.83;;;;;;;4.12;100.00;96535.25;4981111;28;20058;-59
2021/10/29 01:43:27;;;;;;;73.35;16.42;;;;;;;3.97;100.00;96533.91;4974619;28;20046;-57
2021/10/29 01:45:55;;;;;;;53.50;18.10;;;;;;;3.99;100.00;96529.75;5008960;28;20049;-59
2021/10/29 01:48:25;;;;;;;44.95;18.13;;;;;;;4.09;100.00;96535.91;5006899;28;20041;-60
2021/10/29 01:50:51;;;;;;;73.50;18.85;;;;;;;4.09;100.00;96534.00;4981343;28;20141;-60
2021/10/29 01:53:17;;;;;;;102.78;18.98;;;;;;;3.96;100.00;96532.31;4971980;28;20157;-61
2021/10/29 01:55:42;;;;;;;46.92;17.40;;;;;;;3.96;100.00;96537.75;4982152;28;20750;-61
2021/10/29 01:58:08;;;;;;;61.60;18.55;;;;;;;3.90;100.00;96533.63;4974835;28;20065;-62
2021/10/29 02:00:34;;;;;;;46.05;17.77;;;;;;;3.94;100.00;96532.66;4984155;28;20042;-61
2021/10/29 02:02:59;;;;;;;47.78;18.63;;;;;;;4.18;100.00;96536.69;5001192;28;20570;-60
2021/10/29 02:05:25;;;;;;;52.00;19.13;;;;;;;4.30;100.00;96538.66;4995881;28;20045;-59
2021/10/29 02:07:50;;;;;;;45.45;18.42;;;;;;;4.40;100.00;96525.50;5001667;28;20464;-60
2021/10/29 02:10:16;;;;;;;53.55;19.98;;;;;;;4.48;100.00;96523.06;4995542;28;20034;-61
2021/10/29 02:12:42;;;;;;;47.50;18.33;;;;;;;4.54;100.00;96527.94;5008559;28;20083;-60
2021/10/29 02:15:08;;;;;;;45.50;19.25;;;;;;;4.48;100.00;96526.53;5003807;28;20049;-59
2021/10/29 02:17:34;;;;;;;46.35;19.23;;;;;;;4.64;100.00;96521.31;5019270;28;20049;-60
2021/10/29 02:20:01;;;;;;;41.85;17.33;;;;;;;4.75;100.00;96529.84;5005770;28;20502;-61
2021/10/29 02:22:27;;;;;;;45.92;19.30;;;;;;;4.76;100.00;96526.81;4995696;28;20507;-62
2021/10/29 02:24:53;;;;;;;41.20;19.20;;;;;;;4.85;100.00;96524.00;4998132;28;20153;-61
2021/10/29 02:27:18;;;;;;;41.60;17.67;;;;;;;4.88;100.00;96519.81;4995570;28;20249;-59
2021/10/29 02:29:44;;;;;;;43.03;19.00;;;;;;;4.89;100.00;96519.50;5000512;28;20034;-61
2021/10/29 02:32:09;;;;;;;44.50;19.33;;;;;;;4.96;100.00;96522.47;4994225;28;20042;-59
2021/10/29 02:34:35;;;;;;;49.83;20.05;;;;;;;5.05;100.00;96530.53;5001098;28;20044;-60
2021/10/29 02:37:00;;;;;;;45.50;20.95;;;;;;;4.99;100.00;96523.72;5002581;28;20073;-59
2021/10/29 02:39:26;;;;;;;42.25;18.52;;;;;;;5.02;100.00;96517.63;4977142;28;20046;-56
2021/10/29 02:41:51;;;;;;;43.33;19.15;;;;;;;5.04;100.00;96517.28;4979520;28;20740;-59
2021/10/29 02:44:17;;;;;;;43.05;19.63;;;;;;;5.04;100.00;96523.53;4972648;28;20407;-60
2021/10/29 02:46:42;;;;;;;45.65;19.33;;;;;;;5.04;100.00;96520.00;4971171;28;20046;-61
2021/10/29 02:49:08;;;;;;;47.50;20.98;;;;;;;5.01;100.00;96516.03;4967773;28;20046;-61
2021/10/29 02:51:33;;;;;;;48.35;20.10;;;;;;;5.02;100.00;96519.53;4977223;28;20065;-60
2021/10/29 02:53:59;;;;;;;52.40;20.73;;;;;;;5.08;100.00;96505.44;4979898;28;20046;-61
2021/10/29 02:56:24;;;;;;;52.72;21.75;;;;;;;5.05;100.00;96516.97;4975563;28;20081;-61
2021/10/29 02:58:50;;;;;;;47.33;21.95;;;;;;;5.00;100.00;96522.59;4981079;28;20134;-61
2021/10/29 03:01:15;;;;;;;47.05;20.52;;;;;;;5.12;100.00;96514.47;4965972;28;20070;-61
2021/10/29 03:03:41;;;;;;;51.25;20.63;;;;;;;5.26;100.00;96516.91;4975005;28;20046;-60
2021/10/29 03:06:07;;;;;;;48.83;21.05;;;;;;;5.24;100.00;96519.16;4966428;28;20500;-60
2021/10/29 03:08:33;;;;;;;56.85;21.08;;;;;;;5.31;100.00;96522.13;4975960;28;20046;-60
2021/10/29 03:10:58;;;;;;;51.13;22.25;;;;;;;5.30;100.00;96522.44;4979840;28;20042;-60
2021/10/29 03:13:24;;;;;;;47.90;21.90;;;;;;;5.40;100.00;96519.28;4978376;28;20713;-59
2021/10/29 03:15:50;;;;;;;50.20;22.88;;;;;;;5.50;100.00;96515.34;4969668;28;20153;-57
2021/10/29 03:18:16;;;;;;;53.60;22.08;;;;;;;5.55;100.00;96509.72;4975512;28;20162;-56
2021/10/29 03:20:42;;;;;;;53.05;21.83;;;;;;;5.52;100.00;96513.88;4980034;28;20129;-58
2021/10/29 03:23:08;;;;;;;49.17;20.60;;;;;;;5.54;100.00;96503.47;4973725;28;20073;-62
2021/10/29 03:25:33;;;;;;;44.63;21.77;;;;;;;5.53;100.00;96509.25;4977882;28;20042;-59
2021/10/29 03:27:59;;;;;;;44.78;21.67;;;;;;;5.56;100.00;96500.41;4962918;28;20126;-59
2021/10/29 03:30:26;;;;;;;67.45;22.60;;;;;;;5.49;100.00;96503.69;4964823;28;20137;-58
2021/10/29 03:32:53;;;;;;;52.67;22.38;;;;;;;5.29;100.00;96505.34;4971895;28;20173;-59
2021/10/29 03:35:19;;;;;;;48.83;22.42;;;;;;;5.23;100.00;96500.50;4972690;28;20569;-60
2021/10/29 03:41:04;;;;;;;53.22;22.08;;;;;;;5.46;100.00;96512.53;4974810;28;20038;-60
2021/10/29 03:43:40;;;;;;;48.83;23.20;;;;;;;5.63;100.00;96511.50;4973951;28;20046;-61
2021/10/29 03:45:57;;;;;;;54.10;23.10;;;;;;;5.45;100.00;96502.78;4980838;28;20057;-60
2021/10/29 03:48:55;;;;;;;43.88;22.25;;;;;;;5.60;100.00;96512.19;4973582;28;20058;-59
2021/10/29 03:51:17;;;;;;;47.03;23.25;;;;;;;5.45;100.00;96505.50;4974185;28;20047;-59
2021/10/29 03:56:16;;;;;;;47.05;23.02;;;;;;;5.54;100.00;96505.38;4959164;28;20095;-60
2021/10/29 03:58:42;;;;;;;47.72;21.83;;;;;;;5.59;100.00;96510.59;4981794;28;20046;-60
2021/10/29 04:01:07;;;;;;;45.80;22.02;;;;;;;5.62;100.00;96503.69;4968190;28;20054;-59
2021/10/29 04:03:32;;;;;;;43.90;23.73;;;;;;;5.64;100.00;96502.22;4975785;28;20050;-60
2021/10/29 04:05:58;;;;;;;51.10;23.98;;;;;;;5.68;100.00;96510.50;4976888;28;20073;-60
2021/10/29 04:08:23;;;;;;;44.90;21.23;;;;;;;5.70;100.00;96509.00;4974941;28;20523;-60
2021/10/29 04:10:50;;;;;;;50.03;22.88;;;;;;;5.74;100.00;96506.41;4980125;28;20038;-58
2021/10/29 04:13:17;;;;;;;51.97;23.42;;;;;;;5.79;100.00;96500.75;4978977;28;20045;-59
2021/10/29 04:15:43;;;;;;;47.47;21.98;;;;;;;5.88;100.00;96512.31;4981875;28;20042;-60
2021/10/29 04:18:09;;;;;;;47.95;22.88;;;;;;;5.78;100.00;96493.75;4961219;28;20162;-60
2021/10/29 04:20:35;;;;;;;37.25;20.20;;;;;;;5.75;100.00;96497.16;4964044;28;20177;-60
2021/10/29 04:23:00;;;;;;;43.30;22.33;;;;;;;5.71;100.00;96501.69;4963495;28;20042;-59
2021/10/29 04:25:26;;;;;;;46.65;23.85;;;;;;;5.80;100.00;96496.91;4958949;28;20045;-57
2021/10/29 04:27:58;;;;;;;44.13;20.60;;;;;;;5.80;100.00;96494.19;4965038;28;20745;-58
2021/10/29 04:30:26;;;;;;;41.47;21.00;;;;;;;5.82;100.00;96491.16;4978162;28;20609;-58
2021/10/29 04:32:52;;;;;;;42.00;21.23;;;;;;;5.87;100.00;96493.63;4980058;28;20566;-60
2021/10/29 04:35:17;;;;;;;43.15;20.20;;;;;;;5.90;100.00;96490.22;4975703;28;20046;-60
2021/10/29 04:37:43;;;;;;;39.15;19.90;;;;;;;5.93;100.00;96489.53;4983118;28;20034;-61
2021/10/29 04:40:09;;;;;;;87.13;41.95;;;;;;;5.74;100.00;96485.50;4977174;28;20046;-60
2021/10/29 04:42:37;;;;;;;40.67;20.60;;;;;;;5.78;100.00;96491.03;4982715;28;20071;-60
2021/10/29 04:45:05;;;;;;;43.28;20.63;;;;;;;5.86;100.00;96487.38;4977062;28;20499;-62
2021/10/29 04:47:31;;;;;;;41.42;20.20;;;;;;;5.80;100.00;96485.22;4991497;28;20038;-61
2021/10/29 04:49:56;;;;;;;39.92;20.10;;;;;;;5.70;100.00;96489.22;4983927;28;20060;-61
2021/10/29 04:52:22;;;;;;;38.58;19.85;;;;;;;5.71;100.00;96483.44;4973884;28;22194;-59
2021/10/29 04:54:48;;;;;;;38.72;19.70;;;;;;;5.68;100.00;96483.31;4981596;28;20082;-60
2021/10/29 04:57:13;;;;;;;40.65;20.38;;;;;;;5.64;100.00;96485.94;4973995;28;20043;-60
2021/10/29 04:59:38;;;;;;;39.40;18.80;;;;;;;5.60;100.00;96485.03;4979119;28;20058;-58
2021/10/29 05:02:04;;;;;;;39.65;20.63;;;;;;;5.64;100.00;96482.44;4978877;28;20053;-62
2021/10/29 05:04:29;;;;;;;37.70;19.70;;;;;;;5.66;100.00;96482.88;4990199;28;20043;-61
2021/10/29 05:06:55;;;;;;;37.50;17.95;;;;;;;5.32;100.00;96490.31;4985501;28;20376;-58
2021/10/29 05:09:20;;;;;;;37.70;19.13;;;;;;;4.79;100.00;96495.50;4977842;28;20046;-59
2021/10/29 05:11:45;;;;;;;37.58;18.27;;;;;;;4.84;100.00;96484.44;4982379;28;20082;-60
2021/10/29 05:14:11;;;;;;;42.95;20.05;;;;;;;4.41;100.00;96485.59;4973977;28;20053;-61
2021/10/29 05:16:36;;;;;;;49.95;21.80;;;;;;;4.45;100.00;96478.41;4983180;28;20039;-57
2021/10/29 05:19:01;;;;;;;45.83;20.30;;;;;;;4.76;100.00;96483.38;4979885;28;20500;-62
2021/10/29 05:21:27;;;;;;;48.10;21.55;;;;;;;4.92;100.00;96482.78;4977552;28;20046;-58
2021/10/29 05:23:52;;;;;;;51.72;22.35;;;;;;;5.04;100.00;96479.28;4975926;28;20042;-59
2021/10/29 05:26:18;;;;;;;43.75;21.55;;;;;;;5.05;100.00;96465.38;4974746;28;20443;-60
2021/10/29 05:28:44;;;;;;;44.00;20.20;;;;;;;5.00;100.00;96470.22;4982146;28;20210;-60
2021/10/29 05:31:09;;;;;;;39.63;18.77;;;;;;;4.97;100.00;96467.06;4971244;28;20085;-62
2021/10/29 05:33:35;;;;;;;45.72;20.30;;;;;;;5.12;100.00;96470.25;4987145;28;20053;-59
2021/10/29 05:36:01;;;;;;;44.20;21.15;;;;;;;5.32;100.00;96474.81;4993481;28;20105;-60
2021/10/29 05:38:26;;;;;;;41.08;19.52;;;;;;;5.11;100.00;96483.06;4978267;28;20046;-60
2021/10/29 05:40:52;;;;;;;39.80;19.45;;;;;;;4.72;100.00;96487.91;4977878;28;20069;-62
2021/10/29 05:43:17;;;;;;;41.67;19.83;;;;;;;4.46;100.00;96488.13;4978509;28;20033;-62
2021/10/29 05:45:42;;;;;;;51.15;21.45;;;;;;;4.37;100.00;96490.13;4972424;28;20038;-59
2021/10/29 05:48:08;;;;;;;52.28;22.75;;;;;;;4.30;100.00;96487.13;4971713;28;20395;-58
2021/10/29 05:50:36;;;;;;;55.72;25.33;;;;;;;4.27;100.00;96485.91;4981426;28;20054;-61
2021/10/29 05:53:05;;;;;;;57.72;23.98;;;;;;;4.14;100.00;96487.75;4981797;28;20046;-60
2021/10/29 05:55:30;;;;;;;55.72;24.35;;;;;;;4.31;100.00;96492.22;4985609;28;20042;-57
2021/10/29 05:57:56;;;;;;;66.05;24.90;;;;;;;4.28;100.00;96492.88;4980231;28;20499;-59
2021/10/29 06:00:26;;;;;;;75.10;26.55;;;;;;;4.21;100.00;96489.91;4985477;28;20046;-59
2021/10/29 06:02:52;;;;;;;71.70;30.13;;;;;;;4.22;100.00;96491.50;4985556;28;20066;-60
2021/10/29 06:05:18;;;;;;;70.47;28.55;;;;;;;4.16;100.00;96490.09;4972989;28;20053;-56
2021/10/29 06:07:44;;;;;;;72.13;29.60;;;;;;;4.10;100.00;96494.94;4981949;28;20514;-59
2021/10/29 06:10:14;;;;;;;81.57;28.40;;;;;;;4.11;100.00;96495.75;4974734;28;20073;-57
2021/10/29 06:12:40;;;;;;;81.35;29.92;;;;;;;4.02;100.00;96493.88;4980487;28;20101;-59
2021/10/29 06:15:07;;;;;;;84.22;31.63;;;;;;;3.98;100.00;96494.84;4976734;28;20041;-61
2021/10/29 06:17:33;;;;;;;88.68;31.63;;;;;;;4.02;100.00;96496.56;4981273;28;20050;-59
2021/10/29 06:19:59;;;;;;;100.55;32.70;;;;;;;4.13;100.00;96501.63;4980841;28;20065;-58
2021/10/29 06:22:31;;;;;;;96.95;32.50;;;;;;;4.08;100.00;96499.88;4966151;28;20488;-57
2021/10/29 06:24:59;;;;;;;118.57;34.20;;;;;;;3.98;100.00;96497.56;4981619;28;20061;-60
2021/10/29 06:29:50;;;;;;;202.02;36.55;;;;;;;4.04;100.00;96498.97;4983386;28;20471;-59
2021/10/29 06:32:18;;;;;;;142.55;37.33;;;;;;;4.08;100.00;96508.00;4975458;28;20411;-59
2021/10/29 06:34:43;;;;;;;141.45;38.97;;;;;;;4.16;100.00;96498.22;4974304;28;20046;-57
2021/10/29 06:37:15;;;;;;;251.70;40.15;;;;;;;4.10;100.00;96494.94;4976613;28;20057;-59
2021/10/29 06:39:41;;;;;;;230.13;39.70;;;;;;;4.10;100.00;96494.13;4983832;28;20119;-60
2021/10/29 06:42:10;;;;;;;166.45;39.70;;;;;;;4.11;100.00;96493.81;4972545;28;20050;-61
2021/10/29 06:44:46;;;;;;;207.18;40.42;;;;;;;4.20;100.00;96491.84;4976993;28;20070;-60
2021/10/29 07:41:21;;;;;;;289.30;50.35;;;;;;;4.40;100.00;96513.88;4960160;28;20074;-60
2021/10/29 07:43:56;;;;;;;195.98;46.05;;;;;;;4.57;100.00;96510.22;4967945;28;20065;-60
2021/10/29 07:46:22;;;;;;;293.50;49.65;;;;;;;4.56;100.00;96512.13;4971583;28;20521;-62
2021/10/29 07:48:48;;;;;;;281.70;51.83;;;;;;;4.70;100.00;96514.59;4983864;28;20115;-59
2021/10/29 07:51:14;;;;;;;251.50;45.83;;;;;;;4.59;100.00;96514.19;4978826;28;20046;-59
2021/10/29 07:53:41;;;;;;;264.38;49.00;;;;;;;4.62;100.00;96507.28;4985861;28;20065;-60
2021/10/29 07:58:35;;;;;;;226.10;47.38;;;;;;;4.87;100.00;96519.03;4946454;28;20047;-64
2021/10/29 08:01:01;;;;;;;217.68;47.83;;;;;;;4.84;100.00;96517.00;4960485;28;20055;-65
2021/10/29 08:03:27;;;;;;;256.33;51.22;;;;;;;4.85;100.00;96525.94;4958178;28;20070;-63
2021/10/29 08:05:53;;;;;;;223.80;47.28;;;;;;;4.91;100.00;96516.47;4958334;28;20126;-63
2021/10/29 08:08:20;;;;;;;255.60;48.55;;;;;;;4.96;100.00;96524.41;4950947;28;20123;-65
2021/10/29 08:10:46;;;;;;;216.85;47.88;;;;;;;5.06;100.00;96525.88;4979109;28;20194;-65
2021/10/29 08:13:12;;;;;;;219.45;47.55;;;;;;;5.15;100.00;96516.53;4962218;28;20043;-64
2021/10/29 08:15:39;;;;;;;192.48;46.83;;;;;;;5.43;100.00;96506.97;4969240;28;20134;-64
2021/10/29 08:18:07;;;;;;;214.95;48.08;;;;;;;5.54;100.00;96522.47;4954612;28;20054;-64
2021/10/29 08:20:36;;;;;;;230.38;47.80;;;;;;;5.20;100.00;96512.81;4963402;28;20101;-63
2021/10/29 08:23:05;;;;;;;235.27;47.17;;;;;;;5.16;100.00;96520.03;4960235;28;20047;-63
2021/10/29 08:25:31;;;;;;;228.50;46.13;;;;;;;5.11;100.00;96510.19;4964233;28;20051;-63
2021/10/29 08:27:57;;;;;;;207.57;48.40;;;;;;;5.24;100.00;96513.72;4962523;28;20106;-63
2021/10/29 08:30:23;;;;;;;174.70;45.30;;;;;;;5.43;100.00;96515.91;4955594;28;20050;-65
2021/10/29 08:32:50;;;;;;;178.55;43.67;;;;;;;5.80;100.00;96515.13;4963837;28;20050;-64
2021/10/29 08:35:17;;;;;;;161.48;43.05;;;;;;;6.04;100.00;96498.84;4967721;28;20039;-64
2021/10/29 08:37:43;;;;;;;157.27;45.10;;;;;;;6.30;100.00;96506.63;4970088;28;20133;-63
2021/10/29 08:40:10;;;;;;;160.20;41.05;;;;;;;6.27;100.00;96507.31;4954648;28;20484;-63
2021/10/29 08:42:35;;;;;;;128.38;38.38;;;;;;;6.21;100.00;96507.88;4960356;28;20047;-65
2021/10/29 08:45:05;;;;;;;122.03;39.58;;;;;;;6.51;100.00;96511.88;4964341;28;20041;-65
2021/10/29 08:47:33;;;;;;;109.60;36.22;;;;;;;6.78;100.00;96495.16;4963795;28;20074;-63
2021/10/29 08:50:00;;;;;;;100.32;34.78;;;;;;;7.03;100.00;96496.59;4967989;28;20107;-64
2021/10/29 08:52:25;;;;;;;87.88;34.67;;;;;;;7.27;100.00;96497.59;4959911;28;20500;-65
2021/10/29 08:54:54;;;;;;;81.88;32.55;;;;;;;7.37;100.00;96497.09;4957674;28;20133;-64
2021/10/29 08:57:21;;;;;;;70.40;28.73;;;;;;;7.58;100.00;96493.31;4950495;28;20039;-65
2021/10/29 08:59:50;;;;;;;68.22;28.65;;;;;;;7.72;100.00;96487.44;4953177;28;20334;-66
2021/10/29 09:05:01;;;;;;;59.03;26.52;;;;;;;7.72;100.00;96490.16;4956975;28;20499;-65
2021/10/29 09:32:33;;;;;;;61.05;25.60;;;;;;;8.14;100.00;96482.19;4957893;28;20076;-64
2021/10/29 09:35:09;;;;;;;59.13;25.75;;;;;;;8.03;100.00;96486.59;4950700;28;20140;-64
2021/10/29 09:37:59;;;;;;;55.03;24.38;;;;;;;8.14;100.00;96484.09;4950392;28;20448;-64
2021/10/29 09:40:27;;;;;;;63.85;26.00;;;;;;;8.02;100.00;96493.97;4953032;28;20612;-64
2021/10/29 09:42:54;;;;;;;71.00;31.63;;;;;;;7.77;100.00;96481.72;4954309;28;20062;-64
2021/10/29 09:45:27;;;;;;;55.97;25.75;;;;;;;7.94;100.00;96477.81;4950460;28;20427;-62
2021/10/29 09:48:09;;;;;;;55.17;26.15;;;;;;;8.00;100.00;96476.41;4953562;28;20043;-64
2021/10/29 09:50:36;;;;;;;50.67;23.23;;;;;;;8.26;100.00;96481.25;4952484;28;20038;-62
2021/10/29 09:55:51;;;;;;;55.67;24.92;;;;;;;8.40;100.00;96487.03;4947903;28;20047;-63
2021/10/29 09:58:18;;;;;;;57.35;25.38;;;;;;;8.34;100.00;96483.00;4949596;28;20368;-63
2021/10/29 10:00:44;;;;;;;54.50;23.98;;;;;;;8.27;100.00;96482.84;4955832;28;20043;-63
2021/10/29 10:03:12;;;;;;;57.20;24.83;;;;;;;8.24;100.00;96476.16;4946547;28;20057;-63
2021/10/29 10:05:39;;;;;;;50.10;23.27;;;;;;;8.13;100.00;96477.84;4955709;28;20260;-63
2021/10/29 10:08:05;;;;;;;61.08;24.35;;;;;;;8.03;100.00;96471.03;4947300;28;20048;-64
2021/10/29 10:10:32;;;;;;;62.45;25.88;;;;;;;8.04;100.00;96478.06;4950211;28;20101;-64
2021/10/29 10:12:59;;;;;;;57.03;25.30;;;;;;;8.12;100.00;96478.22;4953947;28;20035;-64
2021/10/29 10:15:26;;;;;;;56.20;25.17;;;;;;;8.21;100.00;96474.16;4935803;28;20242;-62
2021/10/29 10:17:52;;;;;;;56.13;25.08;;;;;;;8.57;100.00;96474.13;4951880;28;20058;-63
2021/10/29 10:20:19;;;;;;;55.58;25.17;;;;;;;8.37;100.00;96479.56;4944099;28;20031;-63
2021/10/29 10:22:48;;;;;;;54.10;25.00;;;;;;;8.62;100.00;96479.31;4952228;28;20551;-63
2021/10/29 10:25:47;;;;;;;58.33;27.03;;;;;;;8.58;100.00;96473.00;4948151;28;20046;-64
2021/10/29 10:45:15;;;;;;;55.40;25.95;;;;;;;8.74;100.00;96470.19;4949740;28;20075;-62
2021/10/29 10:47:43;;;;;;;63.10;26.15;;;;;;;8.45;100.00;96471.56;4951292;28;20045;-64
2021/10/29 10:50:16;;;;;;;56.65;25.23;;;;;;;8.51;100.00;96473.63;4941194;28;20093;-63
2021/10/29 10:53:21;;;;;;;54.03;25.40;;;;;;;8.70;100.00;96464.66;4959826;28;20105;-63
2021/10/29 10:59:10;;;;;;;48.80;24.83;;;;;;;8.96;100.00;96460.47;4955120;28;20058;-63
2021/10/29 11:04:46;;;;;;;46.05;22.80;;;;;;;8.82;100.00;96462.91;4950714;28;20043;-62
2021/10/29 11:07:49;;;;;;;50.40;22.80;;;;;;;8.75;100.00;96463.56;4952081;28;20514;-63
2021/10/29 11:10:15;;;;;;;51.22;24.25;;;;;;;8.54;100.00;96464.72;4947233;28;20039;-64
2021/10/29 11:12:41;;;;;;;51.08;23.45;;;;;;;8.42;100.00;96453.94;4930950;28;20043;-63
2021/10/29 11:15:13;;;;;;;50.22;23.70;;;;;;;8.55;100.00;96462.78;4946172;28;20122;-64
2021/10/29 11:17:56;;;;;;;45.70;20.50;;;;;;;8.66;100.00;96458.34;4950879;28;20553;-64
2021/10/29 11:20:59;;;;;;;48.65;23.55;;;;;;;8.59;100.00;96456.25;4951696;28;21951;-64
2021/10/29 11:23:34;;;;;;;47.47;23.17;;;;;;;8.71;100.00;96452.56;4952032;28;20402;-61
2021/10/29 11:26:02;;;;;;;41.35;21.67;;;;;;;8.88;100.00;96458.75;4960056;28;20039;-64
2021/10/29 11:28:35;;;;;;;48.63;22.35;;;;;;;8.82;100.00;96441.84;4953849;28;20054;-64
2021/10/29 11:31:04;;;;;;;41.30;20.65;;;;;;;8.76;100.00;96440.59;4956946;28;20122;-62
2021/10/29 11:33:30;;;;;;;45.70;22.13;;;;;;;9.03;100.00;96448.88;4953946;28;20070;-62
2021/10/29 11:36:02;;;;;;;43.25;21.02;;;;;;;8.24;100.00;96432.50;4922535;29;20187;-63
2021/10/29 11:38:33;;;;;;;42.17;21.25;;;;;;;8.35;100.00;96429.22;4953727;28;20392;-63
2021/10/29 11:41:02;;;;;;;44.90;21.75;;;;;;;8.65;100.00;96436.88;4953722;28;20039;-62
2021/10/29 11:43:30;;;;;;;56.92;29.58;;;;;;;8.54;100.00;96436.66;4950787;28;20045;-62
2021/10/29 11:46:01;;;;;;;48.70;24.13;;;;;;;8.45;100.00;96425.16;4956249;28;20403;-63
2021/10/29 11:48:27;;;;;;;57.15;30.33;;;;;;;8.63;100.00;96428.25;4952030;28;20070;-63
2021/10/29 11:51:23;;;;;;;44.38;22.23;;;;;;;8.54;100.00;96423.78;4965427;28;20456;-63
2021/10/29 11:53:56;;;;;;;43.95;21.90;;;;;;;8.57;100.00;96417.63;4946741;28;20412;-63
2021/10/29 11:57:04;;;;;;;38.47;20.30;;;;;;;8.53;100.00;96407.75;4949458;28;21035;-62
2021/10/29 12:07:17;;;;;;;44.42;21.98;;;;;;;7.98;100.00;96389.47;4947881;28;20097;-63
2021/10/29 12:09:49;;;;;;;46.90;22.65;;;;;;;8.19;100.00;96383.69;4956954;28;20050;-63
2021/10/29 12:12:18;;;;;;;52.58;26.10;;;;;;;8.36;100.00;96381.69;4947904;28;20054;-64
2021/10/29 12:14:48;;;;;;;50.97;24.48;;;;;;;7.74;100.00;96376.91;4954209;28;20557;-63
2021/10/29 12:17:20;;;;;;;48.90;23.55;;;;;;;7.84;100.00;96379.06;4935349;28;20047;-64
2021/10/29 12:19:48;;;;;;;50.75;22.15;;;;;;;7.84;100.00;96368.16;4957078;28;20400;-62
2021/10/29 12:25:11;;;;;;;48.80;22.95;;;;;;;8.15;100.00;96366.44;4953155;28;20048;-63
2021/10/29 12:27:36;;;;;;;51.22;23.50;;;;;;;8.35;100.00;96361.00;4952259;28;20046;-64
2021/10/29 13:03:22;;;;;;;56.95;25.17;;;;;;;7.31;100.00;96321.44;4950962;28;20054;-62
2021/10/29 13:05:57;;;;;;;54.60;25.70;;;;;;;7.42;100.00;96316.22;4959462;28;20043;-62
2021/10/29 13:08:24;;;;;;;53.40;24.42;;;;;;;7.68;100.00;96320.28;4949363;28;20535;-62
2021/10/29 13:10:54;;;;;;;58.15;24.67;;;;;;;6.97;100.00;96328.38;4954395;28;20067;-62
2021/10/29 13:13:30;;;;;;;55.10;24.17;;;;;;;7.05;100.00;96330.16;4948266;28;20039;-61
2021/10/29 13:16:02;;;;;;;55.88;26.65;;;;;;;6.82;100.00;96333.47;4955976;28;20102;-64
2021/10/29 13:18:38;;;;;;;63.72;29.13;;;;;;;6.51;100.00;96326.09;4952205;28;20088;-67
2021/10/29 13:34:53;;;;;;;68.07;27.35;;;;;;;6.88;100.00;96317.69;4954598;28;20054;-61
2021/10/29 13:37:43;;;;;;;71.35;28.75;;;;;;;6.83;100.00;96307.06;4950864;28;20036;-62
2021/10/29 13:56:15;;;;;;;52.47;24.25;;;;;;;7.92;100.00;96298.19;4947862;28;20049;-62
2021/10/29 13:59:03;;;;;;;52.78;24.00;;;;;;;8.22;100.00;96300.34;4959508;28;20069;-62
2021/10/29 14:01:49;;;;;;;50.90;22.77;;;;;;;8.39;100.00;96299.06;4952283;28;20130;-63
2021/10/29 14:31:31;;;;;;;56.20;25.73;;;;;;;8.23;100.00;96285.56;4945425;28;20051;-61
2021/10/29 14:34:03;;;;;;;54.83;24.55;;;;;;;8.33;100.00;96289.63;4983002;23;20050;-60
2021/10/29 14:36:41;;;;;;;50.33;24.92;;;;;;;8.34;100.00;96291.22;5016018;28;20485;-58
2021/10/29 14:39:12;;;;;;;47.72;24.10;;;;;;;8.46;100.00;96303.91;5020383;28;20428;-61
2021/10/29 14:41:43;;;;;;;47.28;22.40;;;;;;;8.56;100.00;96298.66;5000258;28;20402;-56
2021/10/29 14:44:18;;;;;;;49.75;24.23;;;;;;;8.56;100.00;96295.91;5001891;28;20046;-60
2021/10/29 14:46:54;;;;;;;48.47;23.40;;;;;;;8.58;100.00;96298.28;5000543;28;20054;-60
2021/10/29 15:30:30;;;;;;;51.72;24.60;;;;;;;8.36;100.00;96283.44;4962795;28;20053;-62
2021/10/29 15:44:25;;;;;;;50.50;25.27;;;;;;;7.78;100.00;96295.19;4989620;28;20461;-60
2021/10/29 15:51:21;;;;;;;50.55;23.63;;;;;;;7.62;100.00;96285.13;4982616;28;20054;-60
2021/10/29 15:53:47;;;;;;;50.53;25.23;;;;;;;7.53;100.00;96284.53;4987766;28;20047;-61
2021/10/29 15:59:12;;;;;;;50.38;25.05;;;;;;;7.42;100.00;96281.59;4989010;28;20037;-60
2021/10/29 16:17:02;;;;;;;52.53;26.08;;;;;;;7.34;100.00;96285.28;4978431;28;20121;-59